Time;durP1;ratioP1;P1;durP2;ratioP2;P2;SDS_P1;SDS_P2;PMS_P1;PMS_P2;Temp;Humidity;BMP_temperature;BMP_pressure;BME280_temperature;BME280_humidity;BME280_pressure;Samples;Min_cycle;Max_cycle;Signal;HPM_P1;HPM_P2
2022/09/16 00:00:06;;;;;;;6.15;0.47;;;12.00;99.90;;;;;;5033973;28;20021;-74
2022/09/16 00:02:32;;;;;;;1.45;0.30;;;12.00;99.90;;;;;;5016287;28;20028;-75
2022/09/16 00:04:58;;;;;;;2.17;0.00;;;12.00;99.90;;;;;;5034092;28;20446;-74
2022/09/16 00:07:23;;;;;;;3.30;0.17;;;12.00;99.90;;;;;;5033875;28;20387;-74
2022/09/16 00:09:49;;;;;;;1.88;0.03;;;12.00;99.90;;;;;;5033113;28;20025;-76
2022/09/16 00:12:14;;;;;;;2.42;0.25;;;12.00;99.90;;;;;;5016106;28;20525;-75
2022/09/16 00:14:40;;;;;;;6.07;0.00;;;12.10;99.90;;;;;;5033911;28;20536;-75
2022/09/16 00:17:05;;;;;;;2.92;0.00;;;12.10;99.90;;;;;;5033721;28;20040;-75
2022/09/16 00:19:31;;;;;;;3.20;0.00;;;12.10;99.90;;;;;;5033746;28;20029;-75
2022/09/16 00:21:57;;;;;;;2.42;0.25;;;12.10;99.90;;;;;;5033720;28;20092;-75
2022/09/16 00:24:23;;;;;;;4.82;0.00;;;12.10;99.90;;;;;;5033679;28;20025;-75
2022/09/16 00:26:48;;;;;;;0.40;0.08;;;12.10;99.90;;;;;;5033695;28;20034;-75
2022/09/16 00:29:14;;;;;;;2.40;0.55;;;12.20;99.90;;;;;;5015807;28;20071;-75
2022/09/16 00:31:39;;;;;;;4.22;0.03;;;12.20;99.90;;;;;;5033444;28;20144;-75
2022/09/16 00:34:05;;;;;;;1.60;0.00;;;12.30;99.90;;;;;;5033484;28;20095;-75
2022/09/16 00:36:30;;;;;;;1.27;0.00;;;12.30;99.90;;;;;;5015615;28;20113;-74
2022/09/16 00:38:56;;;;;;;2.58;0.00;;;12.30;99.90;;;;;;5033447;28;20045;-74
2022/09/16 00:41:25;;;;;;;4.15;0.00;;;12.40;99.90;;;;;;5033323;28;20405;-74
2022/09/16 00:44:32;;;;;;;2.25;0.47;;;12.40;99.90;;;;;;5015436;28;20029;-74
2022/09/16 00:46:58;;;;;;;1.70;0.05;;;12.40;99.90;;;;;;4988935;28;20046;-74
2022/09/16 00:49:28;;;;;;;3.30;0.13;;;12.40;99.90;;;;;;5033490;28;20371;-74
2022/09/16 00:51:59;;;;;;;0.65;0.00;;;12.30;99.90;;;;;;5016700;28;20026;-74
2022/09/16 00:54:25;;;;;;;0.85;0.03;;;12.40;99.90;;;;;;5015602;28;20041;-76
2022/09/16 00:56:55;;;;;;;2.38;0.00;;;12.40;99.90;;;;;;5015537;28;20486;-74
2022/09/16 00:59:29;;;;;;;6.53;0.20;;;12.30;99.90;;;;;;5015837;28;20030;-74
2022/09/16 01:01:57;;;;;;;4.10;0.10;;;12.30;99.90;;;;;;5033183;28;20065;-74
2022/09/16 01:04:34;;;;;;;1.20;0.10;;;12.30;99.90;;;;;;5015622;28;20032;-74
2022/09/16 01:07:00;;;;;;;1.52;0.38;;;12.20;99.90;;;;;;5014479;28;20030;-76
2022/09/16 01:09:30;;;;;;;4.70;0.00;;;12.20;99.90;;;;;;5033006;28;20139;-74
2022/09/16 01:11:56;;;;;;;1.02;0.10;;;12.20;99.90;;;;;;5032957;28;20121;-74
2022/09/16 01:17:35;;;;;;;1.88;0.15;;;12.20;99.90;;;;;;5033317;28;20088;-74
2022/09/16 01:20:18;;;;;;;0.03;0.00;;;12.20;99.90;;;;;;5033038;28;20034;-76
2022/09/16 01:22:55;;;;;;;2.60;0.43;;;12.20;99.90;;;;;;5015240;28;20478;-74
2022/09/16 01:25:41;;;;;;;2.15;0.00;;;12.20;99.90;;;;;;5015179;28;20033;-74
2022/09/16 01:28:37;;;;;;;3.10;0.00;;;12.20;99.90;;;;;;5032833;28;20034;-75
2022/09/16 01:31:41;;;;;;;0.47;0.00;;;12.20;99.90;;;;;;5033379;28;20144;-74
2022/09/16 01:34:36;;;;;;;3.63;0.08;;;12.20;99.90;;;;;;5033158;28;20045;-75
2022/09/16 01:37:32;;;;;;;4.07;0.00;;;12.10;99.90;;;;;;5032758;28;20483;-74
2022/09/16 01:40:43;;;;;;;0.73;0.00;;;12.00;99.90;;;;;;5033863;28;20068;-74
2022/09/16 01:43:20;;;;;;;2.97;0.10;;;11.90;99.90;;;;;;5028715;28;20038;-75
2022/09/16 01:46:15;;;;;;;1.00;0.20;;;11.80;99.90;;;;;;5032701;28;20049;-74
2022/09/16 01:48:46;;;;;;;6.07;0.43;;;11.70;99.90;;;;;;5025407;28;20046;-76
2022/09/16 01:51:40;;;;;;;0.10;0.00;;;11.60;99.90;;;;;;5014961;28;20124;-74
2022/09/16 01:54:17;;;;;;;2.45;0.00;;;11.50;99.90;;;;;;5014822;28;20030;-75
2022/09/16 01:56:49;;;;;;;1.42;0.45;;;11.40;99.90;;;;;;5032549;28;20113;-75
2022/09/16 01:59:27;;;;;;;0.30;0.00;;;11.40;99.90;;;;;;5015022;28;20159;-74
2022/09/16 02:02:03;;;;;;;6.07;0.22;;;11.30;99.90;;;;;;5033172;28;20018;-75
2022/09/16 02:04:35;;;;;;;2.72;0.10;;;11.30;99.90;;;;;;5014856;28;20506;-75
2022/09/16 02:07:04;;;;;;;2.58;0.35;;;11.30;99.90;;;;;;5032956;28;20030;-74
2022/09/16 02:09:37;;;;;;;1.08;0.00;;;11.30;99.90;;;;;;5032680;28;20426;-74
2022/09/16 02:12:08;;;;;;;0.43;0.00;;;11.40;99.90;;;;;;5014752;28;20017;-74
2022/09/16 02:14:44;;;;;;;1.08;0.10;;;11.50;99.90;;;;;;5032805;28;20052;-74
2022/09/16 02:17:11;;;;;;;1.35;0.00;;;11.50;99.90;;;;;;5014690;28;20025;-74
2022/09/16 02:20:06;;;;;;;2.85;0.20;;;11.50;99.90;;;;;;5035141;28;20032;-74
2022/09/16 02:22:47;;;;;;;1.35;0.00;;;11.60;99.90;;;;;;5014268;28;20037;-75
2022/09/16 02:25:16;;;;;;;1.52;0.00;;;11.60;99.90;;;;;;5036407;28;20068;-74
2022/09/16 02:27:45;;;;;;;0.68;0.00;;;11.60;99.90;;;;;;5036307;28;20537;-74
2022/09/16 02:30:15;;;;;;;3.75;0.00;;;11.70;99.90;;;;;;5036004;28;20182;-74
2022/09/16 02:32:49;;;;;;;2.08;0.32;;;11.70;99.90;;;;;;5036005;28;20033;-75
2022/09/16 02:35:18;;;;;;;6.53;0.00;;;11.70;99.90;;;;;;5017952;28;20018;-74
2022/09/16 02:37:46;;;;;;;;;;;11.70;99.90;;;;;;5018277;28;20022;-74
2022/09/16 02:40:23;;;;;;;1.58;0.00;;;11.70;99.90;;;;;;5017864;28;19912;-74
2022/09/16 02:42:48;;;;;;;0.82;0.00;;;11.80;99.90;;;;;;5017971;28;20029;-74
2022/09/16 02:45:15;;;;;;;1.20;0.00;;;11.80;99.90;;;;;;5017451;28;20033;-74
2022/09/16 02:48:09;;;;;;;4.50;0.00;;;11.80;99.90;;;;;;5035400;28;20077;-74
2022/09/16 02:50:46;;;;;;;3.90;0.28;;;11.90;99.90;;;;;;5000571;28;20510;-75
2022/09/16 02:53:42;;;;;;;0.17;0.00;;;11.90;99.90;;;;;;5035371;28;20018;-75
2022/09/16 02:56:34;;;;;;;2.50;0.00;;;12.00;99.90;;;;;;5035253;28;20072;-74
2022/09/16 02:59:04;;;;;;;1.50;0.00;;;12.00;99.90;;;;;;5035306;28;20093;-74
2022/09/16 03:01:32;;;;;;;1.27;0.20;;;12.00;99.90;;;;;;5035318;28;20068;-74
2022/09/16 03:03:58;;;;;;;0.65;0.00;;;12.00;99.90;;;;;;5017518;28;20469;-75
2022/09/16 03:06:26;;;;;;;2.22;0.00;;;12.00;99.90;;;;;;5017266;28;20033;-75
2022/09/16 03:08:56;;;;;;;1.85;0.00;;;11.90;99.90;;;;;;5034967;28;20394;-75
2022/09/16 03:11:41;;;;;;;3.90;0.00;;;11.80;99.90;;;;;;5017249;28;20013;-75
2022/09/16 03:14:12;;;;;;;4.18;0.00;;;11.70;99.90;;;;;;5017151;28;20429;-75
2022/09/16 03:16:58;;;;;;;2.28;0.00;;;11.60;99.90;;;;;;5017184;28;20116;-75
2022/09/16 03:19:44;;;;;;;3.00;0.00;;;11.60;99.90;;;;;;5034847;28;20060;-74
2022/09/16 03:22:30;;;;;;;2.30;0.00;;;11.50;99.90;;;;;;5035392;28;20026;-74
2022/09/16 03:25:12;;;;;;;1.55;0.08;;;11.50;99.90;;;;;;5034710;28;20422;-75
2022/09/16 03:27:51;;;;;;;4.15;0.00;;;11.50;99.90;;;;;;5016909;28;20029;-74
2022/09/16 03:30:17;;;;;;;2.35;0.25;;;11.50;99.90;;;;;;5034175;28;20021;-75
2022/09/16 03:32:57;;;;;;;3.15;0.00;;;11.50;99.90;;;;;;5016844;28;20072;-74
2022/09/16 03:35:33;;;;;;;2.10;0.32;;;11.60;99.90;;;;;;5034495;28;20033;-74
2022/09/16 03:38:01;;;;;;;5.68;0.25;;;11.60;99.90;;;;;;5016752;28;20021;-74
2022/09/16 03:40:28;;;;;;;2.92;0.45;;;11.70;99.90;;;;;;5034327;28;20018;-74
2022/09/16 03:42:56;;;;;;;4.05;0.70;;;11.70;99.90;;;;;;5016576;28;20022;-76
2022/09/16 03:45:22;;;;;;;1.35;0.10;;;11.70;99.90;;;;;;5034295;28;20052;-74
2022/09/16 03:47:51;;;;;;;1.45;0.00;;;11.80;99.90;;;;;;5016573;28;20028;-74
2022/09/16 03:50:19;;;;;;;0.28;0.00;;;11.80;99.90;;;;;;5034250;28;20037;-75
2022/09/16 03:52:45;;;;;;;2.63;0.00;;;11.80;99.90;;;;;;5034602;28;20067;-74
2022/09/16 03:55:11;;;;;;;0.85;0.00;;;11.80;99.90;;;;;;5034098;28;20029;-74
2022/09/16 03:57:37;;;;;;;0.63;0.00;;;11.70;99.90;;;;;;5016524;28;20538;-74
2022/09/16 04:00:05;;;;;;;5.38;0.32;;;11.60;99.90;;;;;;5034100;28;20161;-73
2022/09/16 04:02:31;;;;;;;0.30;0.00;;;11.60;99.90;;;;;;5034133;28;20025;-74
2022/09/16 04:04:56;;;;;;;3.95;0.20;;;11.60;99.90;;;;;;5034957;28;20021;-74
2022/09/16 04:07:22;;;;;;;2.95;0.28;;;11.50;99.90;;;;;;5034002;28;20021;-74
2022/09/16 04:09:48;;;;;;;4.57;0.10;;;11.50;99.90;;;;;;5016189;28;20021;-74
2022/09/16 04:12:13;;;;;;;0.85;0.22;;;11.40;99.90;;;;;;5033946;28;20087;-74
2022/09/16 04:14:39;;;;;;;1.60;0.00;;;11.40;99.90;;;;;;5016149;28;20026;-74
2022/09/16 04:17:04;;;;;;;7.57;0.22;;;11.30;99.90;;;;;;5015884;28;20036;-75
2022/09/16 04:19:30;;;;;;;0.73;0.00;;;11.30;99.90;;;;;;5033703;28;20029;-74
2022/09/16 04:21:58;;;;;;;1.75;0.00;;;11.30;99.90;;;;;;5033795;28;20037;-75
2022/09/16 04:24:24;;;;;;;1.40;0.00;;;11.30;99.90;;;;;;5033577;28;20021;-75
2022/09/16 04:26:49;;;;;;;1.58;0.00;;;11.30;99.90;;;;;;5033488;28;20025;-75
2022/09/16 04:29:16;;;;;;;0.77;0.10;;;11.30;99.90;;;;;;5015822;28;20106;-75
2022/09/16 04:31:42;;;;;;;1.20;0.00;;;11.40;99.90;;;;;;5033856;28;20029;-75
2022/09/16 04:34:10;;;;;;;1.35;0.00;;;11.40;99.90;;;;;;5033533;28;20060;-75
2022/09/16 04:36:36;;;;;;;0.10;0.00;;;11.30;99.90;;;;;;5015644;28;20056;-75
2022/09/16 04:39:02;;;;;;;0.75;0.00;;;11.30;99.90;;;;;;5033436;28;20029;-75
2022/09/16 04:41:28;;;;;;;0.85;0.45;;;11.30;99.90;;;;;;5033170;28;20025;-75
2022/09/16 04:43:55;;;;;;;0.55;0.00;;;11.30;99.90;;;;;;5033443;28;20025;-74
2022/09/16 04:46:22;;;;;;;0.93;0.00;;;11.20;99.90;;;;;;5033417;28;20079;-75
2022/09/16 04:48:49;;;;;;;2.03;0.15;;;11.10;99.90;;;;;;5015535;28;20025;-75
2022/09/16 04:51:15;;;;;;;5.82;0.38;;;11.10;99.90;;;;;;5033495;28;20421;-75
2022/09/16 04:53:45;;;;;;;5.72;0.10;;;11.00;99.90;;;;;;5015420;28;20025;-75
2022/09/16 04:56:14;;;;;;;0.15;0.00;;;11.00;99.90;;;;;;5033088;28;20028;-74
2022/09/16 04:58:41;;;;;;;2.60;0.00;;;11.00;99.90;;;;;;5033267;28;20029;-74
2022/09/16 05:01:12;;;;;;;2.85;0.30;;;11.00;99.90;;;;;;5033087;28;20030;-74
2022/09/16 05:03:43;;;;;;;2.45;0.00;;;10.90;99.90;;;;;;5015443;28;20030;-75
2022/09/16 05:06:23;;;;;;;0.25;0.00;;;11.00;99.90;;;;;;5033116;28;20025;-74
2022/09/16 05:08:50;;;;;;;0.90;0.17;;;11.00;99.90;;;;;;5015547;28;20061;-75
2022/09/16 05:11:24;;;;;;;4.03;0.10;;;11.00;99.90;;;;;;5015338;28;20032;-75
2022/09/16 05:13:50;;;;;;;1.58;0.00;;;11.00;99.90;;;;;;5015320;28;20498;-75
2022/09/16 05:16:38;;;;;;;1.40;0.47;;;11.00;99.90;;;;;;5011897;28;20065;-74
2022/09/16 05:19:04;;;;;;;3.75;0.00;;;11.00;99.90;;;;;;5013394;28;20096;-72
2022/09/16 05:21:32;;;;;;;4.50;0.00;;;11.00;99.90;;;;;;5013922;28;20057;-72
2022/09/16 05:24:02;;;;;;;2.63;0.00;;;11.00;99.90;;;;;;5012135;28;20467;-73
2022/09/16 05:26:30;;;;;;;1.20;0.00;;;11.00;99.90;;;;;;5013348;28;20048;-73
2022/09/16 05:28:59;;;;;;;1.83;0.00;;;11.00;99.90;;;;;;5013560;28;20045;-73
2022/09/16 05:31:29;;;;;;;3.38;0.00;;;11.10;99.90;;;;;;5013352;28;20084;-73
2022/09/16 05:34:15;;;;;;;2.85;0.20;;;11.10;99.90;;;;;;5012061;28;20544;-72
2022/09/16 05:36:42;;;;;;;1.35;0.03;;;11.10;99.90;;;;;;5013438;28;20431;-77
2022/09/16 05:39:10;;;;;;;1.95;0.28;;;11.10;99.90;;;;;;5013379;28;20101;-75
2022/09/16 05:41:36;;;;;;;2.55;0.32;;;11.20;99.90;;;;;;5013278;28;20026;-75
2022/09/16 05:44:03;;;;;;;4.97;0.15;;;11.10;99.90;;;;;;5013296;28;20014;-76
2022/09/16 05:46:29;;;;;;;2.88;0.00;;;11.00;99.90;;;;;;5011753;28;20527;-76
2022/09/16 05:48:55;;;;;;;0.95;0.10;;;11.00;99.90;;;;;;5011692;28;20169;-75
2022/09/16 05:51:22;;;;;;;2.70;0.00;;;11.00;99.90;;;;;;5013358;28;20065;-75
2022/09/16 05:53:49;;;;;;;1.23;0.00;;;10.90;99.90;;;;;;5014541;28;20105;-75
2022/09/16 05:56:18;;;;;;;0.80;0.20;;;10.90;99.90;;;;;;5016374;28;20026;-75
2022/09/16 05:58:44;;;;;;;2.90;0.40;;;10.90;99.90;;;;;;5015374;28;20129;-75
2022/09/16 06:01:14;;;;;;;2.92;0.35;;;10.80;99.90;;;;;;5015254;28;20026;-75
2022/09/16 06:03:41;;;;;;;2.22;0.00;;;10.90;99.90;;;;;;5015231;28;20028;-75
2022/09/16 06:06:24;;;;;;;1.58;0.00;;;11.00;99.90;;;;;;5015269;28;20076;-76
2022/09/16 06:08:51;;;;;;;3.03;0.35;;;11.10;99.90;;;;;;5016657;28;20029;-75
2022/09/16 06:11:17;;;;;;;2.63;0.00;;;11.20;99.90;;;;;;5016668;28;20034;-75
2022/09/16 06:13:43;;;;;;;2.55;0.10;;;11.40;99.90;;;;;;5015032;28;20458;-76
2022/09/16 06:16:09;;;;;;;8.05;0.75;;;11.50;99.90;;;;;;5016276;28;20040;-75
2022/09/16 06:18:36;;;;;;;1.77;0.00;;;11.60;99.90;;;;;;5016457;28;20026;-75
2022/09/16 06:21:09;;;;;;;1.23;0.00;;;11.80;99.90;;;;;;5016434;28;20034;-75
2022/09/16 06:23:35;;;;;;;3.30;0.00;;;11.90;99.90;;;;;;5016382;28;20030;-75
2022/09/16 06:26:10;;;;;;;1.95;0.00;;;11.90;99.90;;;;;;5016562;28;20030;-75
2022/09/16 06:28:36;;;;;;;0.73;0.00;;;11.90;99.90;;;;;;5015027;28;20110;-75
2022/09/16 06:31:01;;;;;;;5.07;0.25;;;11.90;99.90;;;;;;5016849;28;20467;-76
2022/09/16 06:33:27;;;;;;;4.72;0.40;;;11.90;99.90;;;;;;5014637;28;20029;-75
2022/09/16 06:35:53;;;;;;;4.95;0.45;;;12.00;99.90;;;;;;5016705;28;20033;-76
2022/09/16 06:38:18;;;;;;;2.10;0.00;;;12.00;99.90;;;;;;5016564;28;20026;-75
2022/09/16 06:40:44;;;;;;;3.80;0.05;;;12.20;99.90;;;;;;5014705;28;20387;-75
2022/09/16 06:43:09;;;;;;;2.85;0.00;;;12.30;99.90;;;;;;5015873;28;20076;-76
2022/09/16 06:45:35;;;;;;;2.65;0.00;;;12.70;99.90;;;;;;5015697;28;20108;-75
2022/09/16 06:48:01;;;;;;;3.97;0.47;;;12.80;99.90;;;;;;5014511;28;20041;-75
2022/09/16 06:50:26;;;;;;;2.47;0.00;;;12.90;99.90;;;;;;5015606;28;20387;-75
2022/09/16 06:52:52;;;;;;;4.03;0.10;;;13.00;99.90;;;;;;5015583;28;20022;-75
2022/09/16 06:55:17;;;;;;;1.55;0.00;;;12.90;99.90;;;;;;5014444;28;20018;-76
2022/09/16 06:57:43;;;;;;;1.55;0.00;;;12.90;99.90;;;;;;5014339;28;20028;-76
2022/09/16 07:00:09;;;;;;;3.30;0.00;;;12.80;99.90;;;;;;5014224;28;20109;-76
2022/09/16 07:02:35;;;;;;;2.75;0.00;;;12.80;99.90;;;;;;5014331;28;20030;-75
2022/09/16 07:05:01;;;;;;;3.67;0.10;;;12.80;99.90;;;;;;5014590;28;20077;-75
2022/09/16 07:07:30;;;;;;;0.65;0.10;;;12.70;99.90;;;;;;5015439;28;20030;-76
2022/09/16 07:09:56;;;;;;;3.60;0.47;;;12.70;99.90;;;;;;5015545;28;20026;-75
2022/09/16 07:12:21;;;;;;;0.90;0.00;;;12.60;99.90;;;;;;5015436;28;20549;-74
2022/09/16 07:14:47;;;;;;;1.55;0.20;;;12.50;99.90;;;;;;5014959;28;20034;-75
2022/09/16 07:17:13;;;;;;;3.10;0.00;;;12.60;99.90;;;;;;5015816;28;20030;-76
2022/09/16 07:19:41;;;;;;;2.60;0.30;;;12.60;99.90;;;;;;5015204;28;20096;-76
2022/09/16 07:22:06;;;;;;;2.23;0.00;;;12.80;99.90;;;;;;5015207;28;20045;-75
2022/09/16 07:24:32;;;;;;;1.95;0.00;;;12.90;99.90;;;;;;5015630;28;20107;-75
2022/09/16 07:26:58;;;;;;;0.88;0.00;;;13.00;99.90;;;;;;5014937;28;20368;-75
2022/09/16 07:29:23;;;;;;;3.10;0.20;;;13.20;99.90;;;;;;5013626;28;20483;-76
2022/09/16 07:31:49;;;;;;;3.40;0.45;;;13.30;99.90;;;;;;5013528;28;20479;-75
2022/09/16 07:34:14;;;;;;;7.53;0.28;;;13.40;99.90;;;;;;5015073;28;20028;-76
2022/09/16 07:36:46;;;;;;;3.30;0.20;;;13.50;99.90;;;;;;5013400;28;20445;-75
2022/09/16 07:39:13;;;;;;;0.00;0.00;;;13.70;99.90;;;;;;5013526;28;20372;-75
2022/09/16 07:41:41;;;;;;;1.45;0.00;;;13.80;99.90;;;;;;5014981;28;20029;-75
2022/09/16 07:44:10;;;;;;;1.17;0.00;;;13.90;99.90;;;;;;5014908;28;20022;-74
2022/09/16 07:46:36;;;;;;;0.35;0.00;;;14.00;99.90;;;;;;5014639;28;20018;-75
2022/09/16 07:49:04;;;;;;;2.08;0.00;;;14.20;99.90;;;;;;5014898;28;20033;-75
2022/09/16 07:51:30;;;;;;;2.37;0.00;;;14.40;99.90;;;;;;5013336;28;20050;-75
2022/09/16 07:54:15;;;;;;;1.35;0.20;;;14.70;99.90;;;;;;5015194;28;20471;-76
2022/09/16 07:56:42;;;;;;;1.15;0.00;;;15.10;99.90;;;;;;5014507;28;20081;-75
2022/09/16 07:59:12;;;;;;;3.55;0.20;;;15.40;99.90;;;;;;5014513;28;20025;-75
2022/09/16 08:01:37;;;;;;;2.45;0.05;;;15.70;99.90;;;;;;5014656;28;20487;-75
2022/09/16 08:04:03;;;;;;;1.48;0.00;;;15.90;99.90;;;;;;5014508;28;20034;-76
2022/09/16 08:06:31;;;;;;;2.00;0.00;;;15.80;99.90;;;;;;5014569;28;20518;-75
2022/09/16 08:08:58;;;;;;;2.03;0.00;;;15.50;99.90;;;;;;5015007;28;20068;-76
2022/09/16 08:11:26;;;;;;;2.25;0.00;;;15.20;99.90;;;;;;5013076;28;20018;-76
2022/09/16 08:13:51;;;;;;;3.10;0.30;;;14.80;99.90;;;;;;5014235;28;20093;-75
2022/09/16 08:16:20;;;;;;;3.55;0.35;;;14.30;99.90;;;;;;5013603;28;20065;-75
2022/09/16 08:18:47;;;;;;;2.67;0.00;;;14.00;99.90;;;;;;5012898;28;20103;-76
2022/09/16 08:21:19;;;;;;;0.10;0.00;;;13.70;99.90;;;;;;5012783;28;20034;-76
2022/09/16 08:23:44;;;;;;;1.73;0.10;;;13.60;99.90;;;;;;5014058;28;20109;-75
2022/09/16 08:26:11;;;;;;;0.60;0.00;;;13.40;99.90;;;;;;5014015;28;20049;-76
2022/09/16 08:28:39;;;;;;;1.23;0.00;;;13.20;99.90;;;;;;5012705;28;20108;-76
2022/09/16 08:31:06;;;;;;;2.60;0.10;;;13.20;99.90;;;;;;5014033;28;20022;-75
2022/09/16 08:33:31;;;;;;;2.60;0.32;;;13.20;99.90;;;;;;5013951;28;20049;-75
2022/09/16 08:35:59;;;;;;;1.17;0.10;;;13.20;99.90;;;;;;5013853;28;20112;-76
2022/09/16 08:38:25;;;;;;;1.77;0.20;;;13.30;99.90;;;;;;5013858;28;20494;-75
2022/09/16 08:40:57;;;;;;;0.98;0.10;;;13.60;99.90;;;;;;5013854;28;20025;-74
2022/09/16 08:43:35;;;;;;;7.05;0.28;;;13.90;99.90;;;;;;5014419;28;20386;-76
2022/09/16 08:46:16;;;;;;;0.85;0.00;;;14.30;99.90;;;;;;5012473;28;20021;-76
2022/09/16 08:48:57;;;;;;;1.45;0.10;;;14.30;99.90;;;;;;5013750;28;20040;-76
2022/09/16 08:51:23;;;;;;;0.55;0.13;;;14.30;99.90;;;;;;5013766;28;20076;-75
2022/09/16 08:53:56;;;;;;;1.95;0.10;;;14.30;99.90;;;;;;5013909;28;20426;-76
2022/09/16 08:56:24;;;;;;;1.23;0.00;;;14.40;99.90;;;;;;5013906;28;20459;-77
2022/09/16 08:58:54;;;;;;;1.90;0.00;;;14.50;99.90;;;;;;5012296;28;20026;-75
2022/09/16 09:02:15;;;;;;;1.13;0.13;;;14.80;99.90;;;;;;5013844;28;20513;-75
2022/09/16 09:04:40;;;;;;;1.55;0.00;;;15.30;99.90;;;;;;4937124;29;20027;-76
2022/09/16 09:07:06;;;;;;;0.75;0.00;;;15.60;99.90;;;;;;4995770;28;20049;-76
2022/09/16 09:09:38;;;;;;;1.98;0.30;;;15.40;99.90;;;;;;5013809;28;20495;-76
2022/09/16 09:12:23;;;;;;;4.72;0.00;;;15.10;99.90;;;;;;5012255;28;20483;-76
2022/09/16 09:15:06;;;;;;;3.38;0.15;;;14.80;99.90;;;;;;5013467;28;20060;-76
2022/09/16 09:17:53;;;;;;;3.83;0.15;;;14.50;99.90;;;;;;5013937;28;20030;-76
2022/09/16 09:21:04;;;;;;;2.42;0.00;;;14.20;99.90;;;;;;5013760;28;20386;-76
2022/09/16 09:23:36;;;;;;;1.20;0.00;;;14.00;99.90;;;;;;5013296;28;20026;-75
2022/09/16 09:26:20;;;;;;;2.65;0.00;;;14.00;99.90;;;;;;5013211;28;20482;-75
2022/09/16 09:28:51;;;;;;;0.95;0.00;;;14.00;99.90;;;;;;5013405;28;20040;-75
2022/09/16 09:31:30;;;;;;;4.80;0.03;;;14.10;99.90;;;;;;5017307;28;20018;-75
2022/09/16 09:34:24;;;;;;;1.27;0.10;;;14.20;99.90;;;;;;5018005;28;20417;-75
2022/09/16 09:37:24;;;;;;;2.50;0.00;;;14.50;99.90;;;;;;5017068;28;20100;-75
2022/09/16 09:40:14;;;;;;;4.50;0.35;;;15.00;99.90;;;;;;5017364;28;20022;-75
2022/09/16 09:42:42;;;;;;;1.90;0.00;;;15.30;99.90;;;;;;5015759;28;20133;-76
2022/09/16 09:45:27;;;;;;;2.38;0.00;;;15.40;99.90;;;;;;5016958;28;20026;-76
2022/09/16 09:48:03;;;;;;;0.65;0.00;;;15.60;99.90;;;;;;5017141;28;20040;-73
2022/09/16 09:50:36;;;;;;;3.22;0.10;;;15.70;99.90;;;;;;5017882;28;20340;-75
2022/09/16 09:53:32;;;;;;;3.83;0.00;;;15.70;99.90;;;;;;5015598;28;20032;-75
2022/09/16 09:56:18;;;;;;;1.83;0.00;;;15.70;99.90;;;;;;5015356;28;20471;-75
2022/09/16 09:58:55;;;;;;;1.65;0.08;;;15.70;99.90;;;;;;5017412;28;20097;-73
2022/09/16 10:01:20;;;;;;;1.50;0.00;;;15.70;99.90;;;;;;5015591;28;20030;-73
2022/09/16 10:03:49;;;;;;;1.80;0.00;;;15.70;99.90;;;;;;5017070;28;20022;-75
2022/09/16 10:06:16;;;;;;;3.65;0.00;;;15.50;99.90;;;;;;5017087;28;20022;-73
2022/09/16 10:08:46;;;;;;;0.25;0.00;;;15.40;99.90;;;;;;5016732;28;20494;-73
2022/09/16 10:11:23;;;;;;;2.35;0.00;;;15.30;99.90;;;;;;5016512;28;20026;-73
2022/09/16 10:13:56;;;;;;;6.53;0.20;;;15.00;99.90;;;;;;5015384;28;20025;-73
2022/09/16 10:16:29;;;;;;;2.17;0.00;;;14.80;99.90;;;;;;5015206;28;20025;-75
2022/09/16 10:19:02;;;;;;;2.33;0.22;;;14.50;99.90;;;;;;5016611;28;20026;-74
2022/09/16 10:21:39;;;;;;;13.45;0.20;;;14.20;99.90;;;;;;5015571;28;20033;-74
2022/09/16 10:24:24;;;;;;;3.10;0.00;;;13.90;99.90;;;;;;5016575;28;20475;-76
2022/09/16 10:26:49;;;;;;;2.63;0.40;;;13.70;99.90;;;;;;5016379;28;20026;-73
2022/09/16 10:29:18;;;;;;;2.22;0.00;;;13.50;99.90;;;;;;5016823;28;20018;-75
2022/09/16 10:31:44;;;;;;;1.25;0.00;;;13.30;99.90;;;;;;5015142;28;20087;-73
2022/09/16 10:34:31;;;;;;;2.05;0.00;;;13.30;99.90;;;;;;5016082;28;20058;-72
2022/09/16 10:37:06;;;;;;;1.75;0.00;;;13.20;99.90;;;;;;5015830;28;20026;-72
2022/09/16 10:39:32;;;;;;;0.77;0.00;;;13.20;99.90;;;;;;5015542;28;20022;-72
2022/09/16 10:41:59;;;;;;;0.17;0.00;;;13.00;99.90;;;;;;5015721;28;20467;-73
2022/09/16 10:44:30;;;;;;;5.68;0.13;;;13.20;99.90;;;;;;5015739;28;20026;-73
2022/09/16 10:47:05;;;;;;;4.20;0.20;;;13.00;99.90;;;;;;5015459;28;20391;-72
2022/09/16 10:49:31;;;;;;;1.88;0.30;;;12.90;99.90;;;;;;5016034;28;20141;-75
2022/09/16 10:52:25;;;;;;;0.05;0.00;;;12.90;99.90;;;;;;5015888;28;20060;-73
2022/09/16 10:54:52;;;;;;;1.17;0.00;;;12.90;99.90;;;;;;5016154;28;20026;-74
2022/09/16 10:57:29;;;;;;;0.52;0.00;;;13.00;99.90;;;;;;5014383;28;20060;-73
2022/09/16 11:00:06;;;;;;;5.55;0.32;;;13.20;99.90;;;;;;5014258;28;20080;-73
2022/09/16 11:02:50;;;;;;;1.23;0.00;;;13.50;99.90;;;;;;5014204;28;20394;-73
2022/09/16 11:05:55;;;;;;;2.20;0.55;;;13.80;99.90;;;;;;5015419;28;20030;-73
2022/09/16 11:08:33;;;;;;;1.65;0.15;;;14.10;99.90;;;;;;5015276;28;20117;-73
2022/09/16 11:11:34;;;;;;;2.28;0.00;;;14.40;99.90;;;;;;5015341;28;20026;-73
2022/09/16 11:14:27;;;;;;;3.42;0.00;;;14.80;99.90;;;;;;5015281;28;20379;-73
2022/09/16 11:17:02;;;;;;;4.55;0.00;;;15.40;99.90;;;;;;5015226;28;20037;-73
2022/09/16 11:19:48;;;;;;;0.65;0.00;;;15.90;99.90;;;;;;5013673;28;20030;-73
2022/09/16 11:22:39;;;;;;;1.67;0.00;;;16.00;99.90;;;;;;5013810;28;20521;-73
2022/09/16 11:25:32;;;;;;;0.73;0.10;;;15.90;99.90;;;;;;5015039;28;20141;-73
2022/09/16 11:28:09;;;;;;;2.08;0.08;;;15.60;99.90;;;;;;4999619;28;20118;-72
2022/09/16 11:30:58;;;;;;;1.45;0.00;;;15.30;99.90;;;;;;5015084;28;20022;-73
2022/09/16 11:33:35;;;;;;;4.07;0.00;;;15.00;99.90;;;;;;4995155;28;20052;-73
2022/09/16 11:36:39;;;;;;;1.65;0.00;;;14.70;99.90;;;;;;5014839;28;20053;-73
2022/09/16 11:39:31;;;;;;;2.08;0.70;;;14.30;99.90;;;;;;5008010;28;20030;-73
2022/09/16 11:42:21;;;;;;;3.80;0.32;;;14.10;99.90;;;;;;5014714;28;20022;-72
2022/09/16 11:45:06;;;;;;;5.22;0.35;;;14.10;99.90;;;;;;5013445;28;20178;-72
2022/09/16 11:47:36;;;;;;;5.68;0.28;;;14.30;99.90;;;;;;5015029;28;20026;-72
2022/09/16 11:50:16;;;;;;;3.35;0.43;;;14.70;99.90;;;;;;5014688;28;20440;-73
2022/09/16 11:52:42;;;;;;;0.40;0.10;;;15.10;99.90;;;;;;5014437;28;20033;-73
2022/09/16 11:55:32;;;;;;;1.05;0.00;;;15.40;99.90;;;;;;5014584;28;20018;-73
2022/09/16 11:58:01;;;;;;;1.02;0.40;;;15.60;99.90;;;;;;5014525;28;20025;-75
2022/09/16 12:00:31;;;;;;;2.22;0.13;;;16.00;99.90;;;;;;5014458;28;20029;-76
2022/09/16 12:03:19;;;;;;;1.65;0.00;;;16.50;99.90;;;;;;5014970;28;20088;-76
2022/09/16 12:06:03;;;;;;;0.83;0.00;;;16.80;99.90;;;;;;5013058;28;20061;-76
2022/09/16 12:08:32;;;;;;;2.33;0.00;;;17.10;99.90;;;;;;5014402;28;20269;-76
2022/09/16 12:11:04;;;;;;;2.22;0.25;;;17.50;99.90;;;;;;5014344;28;20372;-76
2022/09/16 12:13:37;;;;;;;1.35;0.10;;;17.80;99.90;;;;;;5014246;28;20149;-76
2022/09/16 12:16:11;;;;;;;1.15;0.20;;;18.00;99.90;;;;;;5013947;28;20029;-76
2022/09/16 12:18:56;;;;;;;1.85;0.22;;;18.30;99.90;;;;;;5014245;28;20052;-76
2022/09/16 12:21:36;;;;;;;4.80;0.00;;;18.40;99.90;;;;;;5014384;28;20399;-76
2022/09/16 12:24:13;;;;;;;2.95;0.08;;;18.40;99.90;;;;;;5014068;28;20026;-76
2022/09/16 12:27:00;;;;;;;7.05;0.20;;;18.30;99.90;;;;;;5012631;28;20038;-76
2022/09/16 12:29:36;;;;;;;3.03;0.00;;;18.50;99.90;;;;;;5014083;28;20076;-76
2022/09/16 12:32:10;;;;;;;1.85;0.00;;;19.10;99.90;;;;;;5014412;28;20069;-76
2022/09/16 12:34:38;;;;;;;1.85;0.00;;;19.30;99.90;;;;;;5013843;28;20053;-76
2022/09/16 12:37:27;;;;;;;0.90;0.00;;;19.60;99.90;;;;;;5012349;28;20021;-76
2022/09/16 12:39:52;;;;;;;3.92;0.00;;;19.50;99.90;;;;;;5014027;28;20026;-76
2022/09/16 12:42:37;;;;;;;0.65;0.00;;;19.20;99.90;;;;;;5013941;28;20072;-74
2022/09/16 12:45:21;;;;;;;4.40;0.32;;;18.50;99.90;;;;;;5014342;28;20474;-74
2022/09/16 12:48:00;;;;;;;1.02;0.20;;;17.40;99.90;;;;;;5012597;28;20034;-74
2022/09/16 12:50:48;;;;;;;2.88;0.25;;;16.60;99.90;;;;;;5012531;28;20430;-74
2022/09/16 12:53:20;;;;;;;2.45;0.22;;;16.10;99.90;;;;;;5013970;28;20026;-74
2022/09/16 12:56:14;;;;;;;0.93;0.00;;;15.60;99.90;;;;;;5013861;28;20022;-74
2022/09/16 12:59:07;;;;;;;2.05;0.00;;;15.20;99.90;;;;;;4997697;28;20034;-74
2022/09/16 13:01:44;;;;;;;4.95;0.28;;;15.10;99.90;;;;;;5013393;28;20080;-74
2022/09/16 13:04:17;;;;;;;1.58;0.10;;;15.00;99.90;;;;;;5012375;28;20056;-74
2022/09/16 13:06:51;;;;;;;7.47;0.32;;;15.00;99.90;;;;;;5013652;28;20026;-74
2022/09/16 13:09:26;;;;;;;1.45;0.00;;;15.10;99.90;;;;;;5013229;28;20026;-74
2022/09/16 13:11:58;;;;;;;2.70;0.00;;;15.20;99.90;;;;;;5013416;28;20068;-74
2022/09/16 13:14:35;;;;;;;3.00;0.10;;;15.30;99.90;;;;;;5013359;28;20093;-74
2022/09/16 13:17:01;;;;;;;1.70;0.00;;;15.70;99.90;;;;;;5013591;28;20057;-74
2022/09/16 13:19:35;;;;;;;0.45;0.10;;;16.30;99.90;;;;;;5013293;28;20026;-74
2022/09/16 13:22:27;;;;;;;1.85;0.00;;;17.10;99.90;;;;;;5012009;28;20026;-74